Time;durP1;ratioP1;P1;durP2;ratioP2;P2;SDS_P1;SDS_P2;PMS_P1;PMS_P2;Temp;Humidity;BMP_temperature;BMP_pressure;BME280_temperature;BME280_humidity;BME280_pressure;Samples;Min_cycle;Max_cycle;Signal;HPM_P1;HPM_P2
2023/01/11 00:00:46;;;;;;;4.20;3.47;;;;;;;-1.05;100.00;96755.66;4934095;28;101865;-67
2023/01/11 00:03:15;;;;;;;6.73;3.73;;;;;;;-0.85;100.00;96749.84;4953027;28;103571;-67
2023/01/11 00:05:44;;;;;;;4.87;3.63;;;;;;;-0.82;100.00;96749.50;4950187;28;101983;-67
2023/01/11 00:08:12;;;;;;;5.40;3.67;;;;;;;-0.72;100.00;96750.09;4950429;28;104778;-67
2023/01/11 00:10:39;;;;;;;6.23;3.53;;;;;;;-0.61;100.00;96741.88;4949732;28;103813;-67
2023/01/11 00:13:05;;;;;;;5.40;3.83;;;;;;;-0.52;100.00;96740.84;4950252;28;101964;-67
2023/01/11 00:15:33;;;;;;;5.17;3.70;;;;;;;-0.47;100.00;96751.59;4949477;28;104839;-67
2023/01/11 00:18:01;;;;;;;4.70;3.90;;;;;;;-0.54;100.00;96742.81;4949286;28;105714;-67
2023/01/11 00:20:28;;;;;;;5.30;3.80;;;;;;;-0.34;100.00;96738.75;4949815;28;102089;-67
2023/01/11 00:22:57;;;;;;;4.83;3.93;;;;;;;-0.28;100.00;96748.50;4950071;28;104746;-67
2023/01/11 00:25:24;;;;;;;5.60;4.30;;;;;;;-0.26;100.00;96736.09;4953090;28;103942;-67
2023/01/11 00:27:51;;;;;;;6.30;4.20;;;;;;;-0.42;100.00;96728.38;4950373;28;104943;-67
2023/01/11 00:30:19;;;;;;;6.83;4.37;;;;;;;-0.36;100.00;96728.47;4949168;28;104651;-67
2023/01/11 00:32:46;;;;;;;5.97;4.23;;;;;;;-0.20;100.00;96738.78;4949992;28;101840;-67
2023/01/11 00:35:13;;;;;;;4.57;4.17;;;;;;;-0.21;100.00;96731.94;4949331;28;105303;-67
2023/01/11 00:37:40;;;;;;;5.60;4.20;;;;;;;-0.17;100.00;96722.78;4949514;28;105814;-67
2023/01/11 00:40:10;;;;;;;6.33;4.10;;;;;;;-0.17;100.00;96708.88;4951340;28;101848;-67
2023/01/11 00:48:06;;;;;;;4.77;3.97;;;;;;;-0.01;100.00;96713.97;4955230;28;101770;-67
2023/01/11 00:50:35;;;;;;;8.87;5.03;;;;;;;-0.07;100.00;96706.84;4948546;28;105092;-67
2023/01/11 00:53:02;;;;;;;5.77;4.03;;;;;;;-0.01;100.00;96716.59;4950979;28;101792;-67
2023/01/11 00:55:31;;;;;;;5.13;3.70;;;;;;;0.11;100.00;96718.59;4951379;28;103034;-67
2023/01/11 00:57:59;;;;;;;4.60;3.60;;;;;;;0.27;100.00;96707.97;4949156;28;106042;-67
2023/01/11 01:00:27;;;;;;;4.93;3.70;;;;;;;0.19;100.00;96717.72;4949627;28;101970;-67
2023/01/11 01:02:54;;;;;;;3.80;3.43;;;;;;;0.23;100.00;96714.56;4949700;28;104908;-67
2023/01/11 01:05:21;;;;;;;4.67;3.93;;;;;;;0.39;100.00;96697.91;4949232;28;105675;-67
2023/01/11 01:07:48;;;;;;;7.87;3.70;;;;;;;0.34;100.00;96715.94;4949824;28;102021;-67
2023/01/11 01:10:17;;;;;;;5.27;3.40;;;;;;;0.45;100.00;96694.56;4952462;28;105614;-67
2023/01/11 01:15:30;;;;;;;5.03;3.63;;;;;;;0.65;100.00;96687.75;4949927;28;103729;-67
2023/01/11 01:17:57;;;;;;;4.43;3.57;;;;;;;0.63;100.00;96681.91;4948931;28;105852;-67
2023/01/11 01:20:25;;;;;;;4.93;3.80;;;;;;;0.64;100.00;96694.00;4950808;28;101853;-67
2023/01/11 01:22:52;;;;;;;5.73;3.43;;;;;;;0.52;100.00;96698.06;4949745;28;105184;-67
2023/01/11 01:25:19;;;;;;;5.20;3.20;;;;;;;0.61;100.00;96692.56;4949711;28;105320;-67
2023/01/11 01:27:47;;;;;;;6.07;4.00;;;;;;;0.69;100.00;96689.03;4952550;28;102288;-67
2023/01/11 01:30:14;;;;;;;4.70;3.57;;;;;;;0.78;100.00;96691.38;4956551;28;105501;-67
2023/01/11 01:32:41;;;;;;;6.10;3.83;;;;;;;0.57;100.00;96693.94;4953195;28;101908;-67
2023/01/11 01:35:09;;;;;;;4.20;3.47;;;;;;;0.65;100.00;96691.22;4953669;28;104927;-67
2023/01/11 01:37:36;;;;;;;7.90;3.33;;;;;;;0.79;100.00;96713.97;4953197;28;103898;-67
2023/01/11 01:40:04;;;;;;;3.50;3.20;;;;;;;0.76;100.00;96709.06;4955065;28;101797;-67
2023/01/11 01:42:32;;;;;;;5.73;3.63;;;;;;;0.80;100.00;96707.72;4953883;28;105278;-67
2023/01/11 01:45:05;;;;;;;5.63;3.30;;;;;;;0.82;100.00;96718.81;4954870;28;103081;-67
2023/01/11 01:47:44;;;;;;;4.70;3.60;;;;;;;0.77;100.00;96708.06;4954320;28;102097;-67
2023/01/11 01:50:19;;;;;;;3.43;3.13;;;;;;;0.90;100.00;96715.28;4956131;28;102811;-67
2023/01/11 01:52:50;;;;;;;5.00;3.23;;;;;;;0.91;100.00;96722.13;4957107;28;105358;-67
2023/01/11 01:55:25;;;;;;;3.73;3.40;;;;;;;0.92;100.00;96708.03;4953328;28;102564;-67
2023/01/11 01:57:55;;;;;;;4.40;3.43;;;;;;;1.22;100.00;96697.31;4952033;28;106826;-67
2023/01/11 02:00:23;;;;;;;5.00;3.40;;;;;;;1.24;100.00;96682.25;4953969;28;101928;-67
2023/01/11 02:02:51;;;;;;;4.37;3.27;;;;;;;1.28;100.00;96694.00;4952965;28;105193;-67
2023/01/11 02:05:19;;;;;;;5.70;3.53;;;;;;;1.35;100.00;96689.63;4952635;28;105804;-67
2023/01/11 02:07:47;;;;;;;6.17;3.60;;;;;;;1.37;100.00;96684.22;4953001;28;101929;-67
2023/01/11 02:10:16;;;;;;;4.27;3.27;;;;;;;1.35;100.00;96676.53;4953692;28;105152;-67
2023/01/11 02:12:49;;;;;;;3.30;2.97;;;;;;;1.38;100.00;96667.47;4953107;28;105673;-67
2023/01/11 02:15:17;;;;;;;3.97;3.03;;;;;;;1.37;100.00;96671.09;4957072;28;102031;-67
2023/01/11 02:17:46;;;;;;;2.97;2.77;;;;;;;1.35;100.00;96667.84;4952154;28;105106;-67
2023/01/11 02:20:25;;;;;;;4.60;2.93;;;;;;;1.39;100.00;96664.69;4953332;28;102092;-67
2023/01/11 02:23:13;;;;;;;4.03;2.93;;;;;;;1.49;100.00;96669.59;4953885;28;105159;-67
2023/01/11 02:26:34;;;;;;;3.70;2.87;;;;;;;1.54;100.00;96659.38;4953598;28;105857;-67
2023/01/11 02:29:09;;;;;;;4.03;3.33;;;;;;;1.58;100.00;96663.25;4952382;28;101984;-67
2023/01/11 02:31:43;;;;;;;3.57;2.77;;;;;;;1.35;100.00;96662.59;4953393;28;103042;-67
2023/01/11 02:34:27;;;;;;;4.30;2.80;;;;;;;1.41;100.00;96656.63;4952807;28;102550;-68
2023/01/11 02:37:11;;;;;;;3.40;2.80;;;;;;;1.48;100.00;96650.44;4973255;28;101822;-67
2023/01/11 02:39:48;;;;;;;3.57;2.90;;;;;;;1.54;100.00;96646.28;4955503;28;105042;-67
2023/01/11 02:45:20;;;;;;;4.37;2.97;;;;;;;1.53;100.00;96639.41;4973157;28;102774;-67
2023/01/11 02:47:54;;;;;;;2.90;2.30;;;;;;;1.49;100.00;96644.19;4955768;28;103940;-67
2023/01/11 02:50:28;;;;;;;3.27;2.63;;;;;;;1.50;100.00;96645.84;4939199;28;102101;-67
2023/01/11 02:53:00;;;;;;;3.17;2.60;;;;;;;1.49;100.00;96648.66;4955670;28;104723;-67
2023/01/11 02:55:32;;;;;;;3.10;2.60;;;;;;;1.68;100.00;96645.38;4955792;28;106027;-67
2023/01/11 02:58:03;;;;;;;2.30;2.10;;;;;;;1.77;100.00;96641.63;4973929;28;101711;-67
2023/01/11 03:00:32;;;;;;;3.33;2.30;;;;;;;1.92;100.00;96626.63;4956929;28;105579;-67
2023/01/11 03:03:07;;;;;;;2.73;2.13;;;;;;;2.00;100.00;96634.31;4960068;28;105300;-67
2023/01/11 03:05:39;;;;;;;2.07;1.90;;;;;;;2.07;100.00;96627.34;4957083;28;105017;-67
2023/01/11 03:08:15;;;;;;;3.83;3.40;;;;;;;1.93;100.00;96625.63;4974705;28;102783;-67
2023/01/11 03:10:56;;;;;;;3.37;2.97;;;;;;;1.96;100.00;96639.16;4956883;28;101818;-67
2023/01/11 03:13:35;;;;;;;2.77;2.30;;;;;;;2.03;100.00;96628.72;4957044;28;105900;-67
2023/01/11 03:16:23;;;;;;;2.33;2.10;;;;;;;2.11;100.00;96623.31;4955615;28;105415;-67
2023/01/11 03:18:54;;;;;;;2.40;2.20;;;;;;;2.07;100.00;96622.09;4955754;28;102070;-66
2023/01/11 03:21:38;;;;;;;2.67;2.47;;;;;;;2.12;100.00;96622.28;4973436;28;104745;-66
2023/01/11 03:24:13;;;;;;;2.87;1.97;;;;;;;2.13;100.00;96610.81;4971686;28;105767;-66
2023/01/11 03:26:53;;;;;;;2.07;1.87;;;;;;;2.18;100.00;96609.22;4960809;28;101692;-67
2023/01/11 03:29:29;;;;;;;2.27;1.73;;;;;;;2.27;100.00;96608.09;4956243;28;105438;-67
2023/01/11 03:32:09;;;;;;;2.80;1.90;;;;;;;2.25;100.00;96607.44;4957000;28;101799;-66
2023/01/11 03:34:44;;;;;;;2.33;1.70;;;;;;;2.26;100.00;96603.84;4953973;28;105716;-66
2023/01/11 03:37:17;;;;;;;1.90;1.80;;;;;;;2.27;100.00;96604.63;4953407;28;104971;-66
2023/01/11 03:39:49;;;;;;;2.63;1.90;;;;;;;2.28;100.00;96603.63;4954176;28;101797;-66
2023/01/11 03:42:20;;;;;;;2.47;2.27;;;;;;;2.22;100.00;96604.41;4953692;28;105508;-66
2023/01/11 03:44:53;;;;;;;2.73;2.17;;;;;;;2.14;100.00;96601.94;4952873;28;105477;-66
2023/01/11 03:47:26;;;;;;;2.90;2.60;;;;;;;2.19;100.00;96591.69;4957914;28;101822;-66
2023/01/11 03:50:00;;;;;;;3.10;2.67;;;;;;;2.11;100.00;96587.41;4952136;28;104228;-66
2023/01/11 03:52:32;;;;;;;3.87;2.90;;;;;;;1.96;100.00;96588.50;4955436;28;101726;-67
2023/01/11 03:55:02;;;;;;;3.33;2.70;;;;;;;2.02;100.00;96591.19;4953675;28;104331;-67
2023/01/11 03:57:34;;;;;;;3.37;3.07;;;;;;;2.06;100.00;96578.47;4954931;28;102768;-66
2023/01/11 04:00:01;;;;;;;3.27;2.97;;;;;;;2.11;100.00;96592.66;4951323;28;101827;-66
2023/01/11 04:02:39;;;;;;;3.17;2.83;;;;;;;2.07;100.00;96583.53;4953648;28;102225;-66
2023/01/11 04:05:07;;;;;;;3.03;2.70;;;;;;;2.06;100.00;96583.72;4936381;28;106056;-67
2023/01/11 04:07:35;;;;;;;3.20;2.70;;;;;;;2.07;100.00;96557.31;4951605;28;102510;-66
2023/01/11 04:10:02;;;;;;;4.20;2.90;;;;;;;1.81;100.00;96574.72;4955632;28;105593;-67
2023/01/11 04:12:29;;;;;;;3.60;2.73;;;;;;;1.82;100.00;96571.09;4936885;28;101915;-67
2023/01/11 04:14:56;;;;;;;2.67;2.30;;;;;;;1.88;100.00;96565.06;4953414;28;104745;-67
2023/01/11 04:17:23;;;;;;;3.43;2.50;;;;;;;1.91;100.00;96560.25;4951962;28;105158;-67
2023/01/11 04:19:52;;;;;;;3.33;2.70;;;;;;;1.93;100.00;96553.00;4951650;28;101869;-67
2023/01/11 04:22:20;;;;;;;2.67;2.47;;;;;;;1.74;100.00;96552.88;4953037;28;104808;-67
2023/01/11 04:24:47;;;;;;;3.40;3.10;;;;;;;1.83;100.00;96551.72;4952879;28;105494;-67
2023/01/11 04:27:15;;;;;;;3.83;2.30;;;;;;;1.86;100.00;96552.16;4952938;28;101971;-67
2023/01/11 04:29:42;;;;;;;3.63;2.70;;;;;;;1.84;100.00;96542.84;4952211;28;104992;-66
2023/01/11 04:32:09;;;;;;;3.63;2.87;;;;;;;1.83;100.00;96552.53;4955780;28;105365;-67
2023/01/11 04:34:35;;;;;;;3.60;2.67;;;;;;;1.85;100.00;96529.56;4953034;28;103536;-66
2023/01/11 04:37:04;;;;;;;3.50;3.20;;;;;;;1.89;100.00;96532.59;4952119;28;105431;-66
2023/01/11 04:39:31;;;;;;;3.90;3.00;;;;;;;1.91;100.00;96533.22;4952818;28;101928;-66
2023/01/11 04:44:39;;;;;;;3.10;2.80;;;;;;;1.90;100.00;96552.56;4966090;28;105489;-67
2023/01/11 04:47:06;;;;;;;3.40;2.73;;;;;;;1.78;100.00;96543.63;4952643;28;101791;-67
2023/01/11 04:49:34;;;;;;;3.30;3.00;;;;;;;1.80;100.00;96541.63;4952030;28;105314;-67
2023/01/11 04:52:01;;;;;;;3.63;3.07;;;;;;;1.87;100.00;96530.16;4952292;28;105047;-67
2023/01/11 04:54:29;;;;;;;4.03;3.07;;;;;;;1.91;100.00;96533.22;4956523;28;101738;-67
2023/01/11 04:56:58;;;;;;;3.03;2.73;;;;;;;1.80;100.00;96520.66;4953509;28;102780;-67
2023/01/11 04:59:25;;;;;;;2.93;2.70;;;;;;;1.84;100.00;96529.75;4952927;28;101882;-67
2023/01/11 05:01:54;;;;;;;2.70;2.50;;;;;;;1.82;100.00;96529.13;4955053;28;105160;-67
2023/01/11 05:04:21;;;;;;;3.57;3.27;;;;;;;1.88;100.00;96542.28;4956292;28;105196;-67
2023/01/11 05:06:48;;;;;;;2.93;2.73;;;;;;;1.94;100.00;96530.22;4957505;28;101904;-67
2023/01/11 05:09:17;;;;;;;3.53;3.23;;;;;;;1.94;100.00;96532.81;4953495;28;105309;-67
2023/01/11 05:11:46;;;;;;;3.50;3.20;;;;;;;1.97;100.00;96524.59;4953921;28;106286;-66
2023/01/11 05:14:13;;;;;;;3.50;3.20;;;;;;;1.93;100.00;96523.34;4956199;28;102205;-66
2023/01/11 05:16:40;;;;;;;4.20;3.20;;;;;;;2.09;100.00;96515.16;4959939;28;102824;-66
2023/01/11 05:19:06;;;;;;;5.57;3.50;;;;;;;2.08;100.00;96518.78;4955940;28;102423;-66
2023/01/11 05:21:35;;;;;;;4.10;3.23;;;;;;;2.14;100.00;96515.38;4956933;28;102317;-66
2023/01/11 05:24:05;;;;;;;3.20;2.90;;;;;;;2.16;100.00;96521.25;4954371;28;104028;-66
2023/01/11 05:26:34;;;;;;;4.27;3.10;;;;;;;2.19;100.00;96510.38;4954748;28;101913;-67
2023/01/11 05:29:06;;;;;;;3.63;2.97;;;;;;;2.17;100.00;96507.94;4953945;28;104795;-67
2023/01/11 05:31:35;;;;;;;3.40;3.10;;;;;;;2.14;100.00;96513.56;4952985;28;105222;-66
2023/01/11 05:34:02;;;;;;;3.37;3.00;;;;;;;2.11;100.00;96511.34;4954342;28;102042;-67
2023/01/11 05:36:29;;;;;;;4.83;4.03;;;;;;;2.17;100.00;96491.38;4952305;28;104822;-67
2023/01/11 05:38:58;;;;;;;5.27;3.93;;;;;;;2.25;100.00;96499.09;4955325;28;101993;-67
2023/01/11 05:41:27;;;;;;;4.20;3.80;;;;;;;2.19;100.00;96492.00;4954344;28;101794;-66
2023/01/11 05:46:43;;;;;;;3.40;3.10;;;;;;;2.11;100.00;96508.72;4953378;28;101731;-67
2023/01/11 05:49:12;;;;;;;3.73;3.03;;;;;;;2.15;100.00;96506.50;4954145;28;102310;-66
2023/01/11 05:51:39;;;;;;;4.10;3.33;;;;;;;2.31;100.00;96500.94;4951471;28;105177;-67
2023/01/11 05:54:09;;;;;;;5.70;3.17;;;;;;;2.18;100.00;96509.56;4952028;28;102121;-66
2023/01/11 05:56:36;;;;;;;4.10;3.37;;;;;;;2.16;100.00;96511.56;4953339;28;102639;-66
2023/01/11 05:59:03;;;;;;;3.33;3.00;;;;;;;2.21;100.00;96516.22;4954823;28;103938;-66
2023/01/11 06:01:30;;;;;;;4.10;3.30;;;;;;;2.29;100.00;96510.81;4951846;28;104840;-66
2023/01/11 06:03:59;;;;;;;6.67;3.50;;;;;;;2.37;100.00;96508.84;4951091;28;105302;-66
2023/01/11 06:06:26;;;;;;;5.90;3.60;;;;;;;2.37;100.00;96508.84;4951966;28;101958;-66
2023/01/11 06:08:53;;;;;;;3.70;3.40;;;;;;;2.31;100.00;96507.00;4951700;28;105061;-66
2023/01/11 06:11:20;;;;;;;4.83;3.23;;;;;;;2.30;100.00;96504.56;4951496;28;104427;-66
2023/01/11 06:13:47;;;;;;;3.70;3.40;;;;;;;2.50;100.00;96500.16;4932047;28;102021;-66
2023/01/11 06:16:16;;;;;;;4.47;3.70;;;;;;;2.59;100.00;96493.75;4932399;28;105377;-66
2023/01/11 06:18:45;;;;;;;4.10;3.40;;;;;;;2.65;100.00;96490.31;4931133;28;105186;-66
2023/01/11 06:21:14;;;;;;;4.30;2.97;;;;;;;2.65;100.00;96492.94;4935273;28;101868;-66
2023/01/11 06:23:44;;;;;;;4.10;3.40;;;;;;;2.63;100.00;96490.50;4931331;28;103822;-66
2023/01/11 06:26:13;;;;;;;4.00;3.10;;;;;;;2.66;100.00;96484.06;4932152;28;101746;-66
2023/01/11 06:28:41;;;;;;;4.87;3.43;;;;;;;2.66;100.00;96486.69;4931952;28;105287;-66
2023/01/11 06:31:09;;;;;;;4.43;3.87;;;;;;;2.61;100.00;96478.59;4931498;28;105220;-66
2023/01/11 06:33:37;;;;;;;5.20;4.57;;;;;;;2.61;100.00;96489.91;4931995;28;101900;-66
2023/01/11 06:36:05;;;;;;;5.20;4.70;;;;;;;2.69;100.00;96481.06;4946626;28;104875;-66
2023/01/11 06:38:34;;;;;;;6.03;4.90;;;;;;;2.77;100.00;96488.72;4950682;28;105328;-66
2023/01/11 06:41:02;;;;;;;6.40;4.97;;;;;;;2.74;100.00;96483.88;4951377;28;102050;-66
2023/01/11 06:43:31;;;;;;;7.80;5.07;;;;;;;2.72;100.00;96485.88;4954142;28;102602;-66
2023/01/11 06:45:58;;;;;;;5.67;4.80;;;;;;;2.75;100.00;96478.44;4951209;28;101880;-66
2023/01/11 06:48:26;;;;;;;7.67;5.47;;;;;;;2.71;100.00;96477.22;4950909;28;105388;-66
2023/01/11 06:50:55;;;;;;;6.80;5.57;;;;;;;2.60;100.00;96483.06;4950439;28;105082;-66
2023/01/11 06:53:23;;;;;;;7.97;5.20;;;;;;;2.61;100.00;96475.97;4951110;28;101857;-66
2023/01/11 06:55:52;;;;;;;6.23;5.07;;;;;;;2.67;100.00;96481.25;4950977;28;105605;-66
2023/01/11 06:58:19;;;;;;;6.53;5.50;;;;;;;2.65;100.00;96485.06;4950527;28;104075;-66
2023/01/11 07:00:46;;;;;;;6.43;5.53;;;;;;;2.71;100.00;96490.34;4950740;28;101873;-66
2023/01/11 07:03:13;;;;;;;11.90;9.97;;;;;;;2.76;100.00;96501.06;4950947;28;105694;-66
2023/01/11 07:05:42;;;;;;;10.23;9.10;;;;;;;2.81;100.00;96485.53;4952768;28;105223;-66
2023/01/11 07:08:09;;;;;;;8.43;7.10;;;;;;;2.85;100.00;96485.94;4951207;28;105677;-66
2023/01/11 07:10:36;;;;;;;6.70;5.23;;;;;;;2.87;100.00;96474.22;4949957;28;105319;-65
2023/01/11 07:13:05;;;;;;;6.47;5.53;;;;;;;2.94;100.00;96474.19;4951000;28;102362;-65
2023/01/11 07:15:33;;;;;;;6.10;4.60;;;;;;;2.85;100.00;96480.69;4950780;28;104992;-65
2023/01/11 07:18:00;;;;;;;7.13;4.43;;;;;;;2.93;100.00;96483.09;4950020;28;105002;-65
2023/01/11 07:20:28;;;;;;;5.73;4.20;;;;;;;3.05;100.00;96478.84;4950446;28;101936;-65
2023/01/11 07:22:57;;;;;;;4.77;4.20;;;;;;;3.04;100.00;96474.63;4950536;28;103664;-65
2023/01/11 07:25:24;;;;;;;5.13;4.10;;;;;;;3.04;100.00;96475.44;4948661;28;105424;-66
2023/01/11 07:27:56;;;;;;;4.57;4.17;;;;;;;3.21;100.00;96465.31;4954132;28;101889;-66
2023/01/11 07:30:25;;;;;;;4.47;3.93;;;;;;;3.16;100.00;96467.78;4949903;28;104537;-66
2023/01/11 07:32:52;;;;;;;4.13;3.73;;;;;;;3.20;100.00;96466.34;4950714;28;101825;-66
2023/01/11 07:35:19;;;;;;;4.07;3.60;;;;;;;3.24;100.00;96470.19;4949719;28;105268;-66
2023/01/11 07:37:46;;;;;;;6.83;3.70;;;;;;;3.23;100.00;96474.63;4951329;28;102509;-66
2023/01/11 07:40:15;;;;;;;4.27;3.70;;;;;;;3.27;100.00;96481.09;4950450;28;102216;-66
2023/01/11 07:45:34;;;;;;;3.97;3.50;;;;;;;3.36;100.00;96469.38;4949850;28;103882;-66
2023/01/11 07:48:02;;;;;;;4.80;3.47;;;;;;;3.33;100.00;96461.09;4953711;28;101966;-66
2023/01/11 07:50:29;;;;;;;4.47;3.40;;;;;;;3.29;100.00;96468.53;4949570;28;105651;-66
2023/01/11 07:52:56;;;;;;;5.37;4.30;;;;;;;3.36;100.00;96460.66;4950156;28;101934;-66
2023/01/11 07:55:23;;;;;;;5.30;4.80;;;;;;;3.50;100.00;96459.66;4950002;28;105222;-66
2023/01/11 07:57:50;;;;;;;6.20;5.60;;;;;;;3.58;100.00;96457.63;4949494;28;105051;-66
2023/01/11 08:00:18;;;;;;;7.13;6.43;;;;;;;3.59;100.00;96455.78;4951613;28;101915;-66
2023/01/11 08:02:51;;;;;;;8.57;6.40;;;;;;;3.63;100.00;96457.81;4950028;28;105204;-66
2023/01/11 08:05:18;;;;;;;8.83;6.40;;;;;;;3.76;100.00;96447.25;4949351;28;105333;-66
2023/01/11 08:07:45;;;;;;;10.40;7.43;;;;;;;3.83;100.00;96449.88;4950002;28;101853;-65
2023/01/11 08:10:12;;;;;;;9.40;7.07;;;;;;;3.84;100.00;96454.94;4952731;28;104811;-65
2023/01/11 08:15:28;;;;;;;6.37;5.77;;;;;;;3.85;100.00;96463.59;4950124;28;104839;-65
2023/01/11 08:17:56;;;;;;;7.93;6.07;;;;;;;3.96;100.00;96460.34;4948763;28;104064;-65
2023/01/11 08:20:23;;;;;;;15.13;6.43;;;;;;;4.02;100.00;96459.50;4948803;28;101866;-65
2023/01/11 08:22:50;;;;;;;6.00;5.40;;;;;;;4.06;100.00;96464.16;4949083;28;104936;-65
2023/01/11 08:25:17;;;;;;;8.33;5.73;;;;;;;4.12;100.00;96447.53;4949654;28;102750;-66
2023/01/11 08:27:44;;;;;;;7.03;4.93;;;;;;;4.13;100.00;96446.53;4949022;28;101857;-66
2023/01/11 08:30:12;;;;;;;6.40;5.33;;;;;;;4.14;100.00;96453.41;4948765;28;104867;-65
2023/01/11 08:32:40;;;;;;;5.67;4.07;;;;;;;4.18;100.00;96448.50;4951203;28;105345;-65
2023/01/11 08:35:09;;;;;;;3.63;3.33;;;;;;;4.26;100.00;96450.94;4948168;28;105319;-65
2023/01/11 08:37:36;;;;;;;3.30;2.77;;;;;;;4.41;100.00;96444.34;4949322;28;102633;-65
2023/01/11 08:40:03;;;;;;;3.90;3.37;;;;;;;4.56;100.00;96441.44;4948832;28;101917;-65
2023/01/11 08:42:31;;;;;;;5.13;2.60;;;;;;;4.59;100.00;96436.56;4948072;28;105531;-65
2023/01/11 08:44:58;;;;;;;3.77;2.80;;;;;;;4.68;100.00;96440.56;4947912;28;104167;-65
2023/01/11 08:47:25;;;;;;;3.83;2.93;;;;;;;4.87;100.00;96433.53;4948519;28;101746;-65
2023/01/11 08:49:52;;;;;;;2.90;2.70;;;;;;;5.10;100.00;96431.94;4948586;28;104782;-65
2023/01/11 08:52:22;;;;;;;3.87;2.87;;;;;;;5.12;100.00;96437.81;4947890;28;103885;-65
2023/01/11 08:54:49;;;;;;;2.50;2.30;;;;;;;5.26;100.00;96443.78;4951674;28;101792;-65
2023/01/11 08:57:16;;;;;;;4.83;3.10;;;;;;;5.42;100.00;96441.41;4947931;28;105477;-65
2023/01/11 08:59:43;;;;;;;3.30;2.80;;;;;;;5.55;100.00;96443.91;4950301;28;101692;-65
2023/01/11 09:02:12;;;;;;;2.60;2.40;;;;;;;5.66;100.00;96430.00;4948665;28;105339;-65
2023/01/11 09:04:39;;;;;;;1.80;1.70;;;;;;;5.69;100.00;96434.03;4949384;28;102530;-65
2023/01/11 09:07:06;;;;;;;4.20;3.13;;;;;;;5.63;100.00;96440.97;4948159;28;101972;-65
2023/01/11 09:09:35;;;;;;;3.57;3.10;;;;;;;5.78;100.00;96427.47;4948295;28;105709;-65
2023/01/11 09:12:03;;;;;;;3.20;2.40;;;;;;;5.95;100.00;96433.78;4947612;28;105922;-66
2023/01/11 09:14:30;;;;;;;3.27;2.80;;;;;;;6.11;100.00;96443.75;4949367;28;101988;-65
2023/01/11 09:16:57;;;;;;;2.83;2.63;;;;;;;6.24;100.00;96444.41;4951798;28;104904;-65
2023/01/11 09:19:24;;;;;;;2.47;2.30;;;;;;;6.29;100.00;96435.81;4949005;28;101853;-65
2023/01/11 09:21:52;;;;;;;3.10;2.30;;;;;;;6.40;100.00;96437.72;4948771;28;105179;-65
2023/01/11 09:24:19;;;;;;;3.17;2.63;;;;;;;6.52;100.00;96435.91;4948284;28;104179;-65
2023/01/11 09:26:47;;;;;;;4.63;3.10;;;;;;;6.65;100.00;96430.47;4949026;28;101872;-65
2023/01/11 09:29:15;;;;;;;7.00;3.37;;;;;;;6.65;100.00;96430.47;4948841;28;105088;-65
2023/01/11 09:31:43;;;;;;;5.07;3.70;;;;;;;6.74;100.00;96421.19;4948252;28;105150;-65
2023/01/11 09:34:12;;;;;;;6.00;3.60;;;;;;;6.79;100.00;96421.31;4949027;28;102009;-65
2023/01/11 09:36:40;;;;;;;5.83;3.67;;;;;;;6.89;100.00;96414.47;4949018;28;103543;-65
2023/01/11 09:39:10;;;;;;;5.77;3.40;;;;;;;6.80;100.00;96402.59;4951709;28;103781;-65
2023/01/11 09:42:00;;;;;;;3.67;3.00;;;;;;;6.78;100.00;96403.84;4949037;28;105135;-65
2023/01/11 09:44:30;;;;;;;3.97;3.00;;;;;;;6.83;100.00;96401.34;4935408;28;105275;-65
2023/01/11 09:47:13;;;;;;;3.97;3.30;;;;;;;6.93;100.00;96402.38;4948702;28;101944;-65
2023/01/11 09:49:46;;;;;;;6.67;3.77;;;;;;;6.88;100.00;96404.09;4952147;28;102536;-65
2023/01/11 09:52:23;;;;;;;5.70;3.87;;;;;;;6.95;100.00;96415.38;4951513;28;105290;-65
2023/01/11 09:54:51;;;;;;;5.70;3.20;;;;;;;6.93;100.00;96407.66;4953552;28;101979;-65
2023/01/11 09:57:29;;;;;;;4.53;3.23;;;;;;;6.90;100.00;96408.13;4951961;28;105048;-65
2023/01/11 10:00:08;;;;;;;4.93;3.10;;;;;;;6.95;100.00;96394.22;4954541;28;105179;-65
2023/01/11 10:02:47;;;;;;;5.50;3.33;;;;;;;7.01;100.00;96394.13;4951830;28;104883;-65
2023/01/11 10:05:34;;;;;;;4.53;3.23;;;;;;;7.17;100.00;96387.34;4951306;28;105606;-65
2023/01/11 10:08:19;;;;;;;5.37;3.20;;;;;;;7.07;100.00;96381.81;4953100;28;101675;-65
2023/01/11 10:10:53;;;;;;;4.07;3.50;;;;;;;7.22;100.00;96382.19;4953263;28;102595;-65
2023/01/11 10:13:37;;;;;;;4.50;4.10;;;;;;;7.19;100.00;96378.16;4952464;28;102639;-65
2023/01/11 10:16:19;;;;;;;3.50;2.80;;;;;;;6.75;100.00;96375.22;4953042;28;101744;-65
2023/01/11 10:19:01;;;;;;;3.23;2.60;;;;;;;6.75;100.00;96368.09;4953157;28;101791;-65
2023/01/11 10:21:35;;;;;;;3.93;2.70;;;;;;;7.00;100.00;96359.97;4950870;28;104114;-65
2023/01/11 10:24:11;;;;;;;2.73;2.30;;;;;;;7.03;100.00;96357.69;4938686;28;101934;-65
2023/01/11 10:26:40;;;;;;;2.70;1.90;;;;;;;7.01;100.00;96358.94;4950651;28;105881;-65
2023/01/11 10:29:37;;;;;;;2.20;1.77;;;;;;;7.01;100.00;96358.94;4951700;28;101881;-65
2023/01/11 10:32:33;;;;;;;1.80;1.40;;;;;;;7.11;100.00;96359.19;4951341;28;105256;-65
2023/01/11 10:35:23;;;;;;;1.50;1.40;;;;;;;7.17;100.00;96359.09;4950363;28;104891;-65
2023/01/11 10:38:09;;;;;;;1.33;1.20;;;;;;;6.96;100.00;96349.06;4951488;28;102141;-65
2023/01/11 10:43:28;;;;;;;1.40;1.30;;;;;;;7.25;100.00;96340.22;4951823;28;102748;-65
2023/01/11 10:46:02;;;;;;;1.40;1.30;;;;;;;7.34;100.00;96343.31;4951379;28;101778;-65
2023/01/11 10:48:37;;;;;;;1.40;1.30;;;;;;;7.67;100.00;96346.97;4953768;28;105789;-65
2023/01/11 10:51:13;;;;;;;10.97;6.60;;;;;;;7.72;100.00;96333.84;4951133;28;101800;-65
2023/01/11 10:53:48;;;;;;;11.40;6.37;;;;;;;7.75;100.00;96336.00;4951142;28;105070;-65
2023/01/11 10:56:25;;;;;;;2.27;1.20;;;;;;;7.70;100.00;96327.16;4950617;28;105076;-65
2023/01/11 10:59:12;;;;;;;39.63;20.90;;;;;;;7.63;100.00;96323.84;4950491;28;101815;-65
2023/01/11 11:01:53;;;;;;;20.87;12.57;;;;;;;7.66;100.00;96332.13;4950191;28;104706;-65
2023/01/11 11:04:42;;;;;;;5.43;4.80;;;;;;;7.79;100.00;96318.63;4949315;28;104973;-69
2023/01/11 11:07:16;;;;;;;3.30;2.90;;;;;;;7.84;100.00;96331.16;4950876;28;101814;-69
2023/01/11 11:09:53;;;;;;;0.93;0.90;;;;;;;7.87;100.00;96326.22;4951155;28;103720;-69
2023/01/11 11:12:25;;;;;;;3.73;3.43;;;;;;;7.87;100.00;96328.03;4954808;28;104269;-68
2023/01/11 11:15:02;;;;;;;1.93;1.80;;;;;;;8.01;100.00;96321.44;4953253;28;102324;-68
2023/01/11 11:17:33;;;;;;;1.23;1.13;;;;;;;8.02;100.00;96329.13;4950579;28;105588;-68
2023/01/11 11:20:12;;;;;;;1.07;1.00;;;;;;;8.00;100.00;96319.81;4950909;28;101848;-68
2023/01/11 11:22:39;;;;;;;1.40;1.00;;;;;;;8.10;100.00;96315.53;4950843;28;104822;-74
2023/01/11 11:25:16;;;;;;;1.20;1.10;;;;;;;8.22;100.00;96318.16;4951680;28;104560;-69
2023/01/11 11:27:47;;;;;;;1.50;0.70;;;;;;;8.16;100.00;96305.81;4950689;28;101840;-67
2023/01/11 11:30:26;;;;;;;0.60;0.60;;;;;;;8.13;100.00;96309.75;4950732;28;103544;-67
2023/01/11 11:32:57;;;;;;;0.77;0.77;;;;;;;7.94;100.00;96302.22;4950208;28;105179;-67
2023/01/11 11:35:36;;;;;;;1.37;0.80;;;;;;;7.89;100.00;96297.66;4953684;28;101703;-67
2023/01/11 11:38:04;;;;;;;0.80;0.80;;;;;;;7.96;100.00;96292.22;4950406;28;104364;-67
2023/01/11 11:40:34;;;;;;;0.77;0.77;;;;;;;7.97;100.00;96293.81;4951700;28;101827;-67
2023/01/11 11:43:26;;;;;;;0.90;0.80;;;;;;;7.94;100.00;96281.88;4950579;28;103937;-67
2023/01/11 11:45:56;;;;;;;0.90;0.90;;;;;;;8.00;100.00;96288.03;4931276;28;105590;-67
2023/01/11 11:48:26;;;;;;;1.93;0.80;;;;;;;7.98;100.00;96284.84;4950374;28;101963;-67
2023/01/11 11:50:56;;;;;;;8.00;6.03;;;;;;;8.01;100.00;96277.22;4951911;28;102837;-68
2023/01/11 11:53:37;;;;;;;1.73;1.20;;;;;;;8.12;100.00;96268.41;4949416;28;105678;-67
2023/01/11 11:56:15;;;;;;;5.87;4.23;;;;;;;8.16;100.00;96266.09;4950419;28;101827;-66
2023/01/11 11:58:44;;;;;;;4.47;3.17;;;;;;;8.21;100.00;96258.28;4953075;28;105313;-66
2023/01/11 12:01:22;;;;;;;0.83;0.83;;;;;;;8.18;100.00;96256.09;4950375;28;102049;-67
2023/01/11 12:03:52;;;;;;;4.97;1.40;;;;;;;8.19;100.00;96257.69;4950000;28;104976;-67
2023/01/11 12:06:25;;;;;;;2.53;0.90;;;;;;;8.17;100.00;96265.88;4951289;28;103185;-67